Terminal Aerodrome Forecast
Issued by NWS

Home | Current Version | Previous Version | Text Only | Print | Product List | Glossary Off
Versions: 1 2 3 4 5 6 7 8 9 10 11 12 13 14 15

000
FTUS43 KTOP 142300
TAFFOE
TAF
KFOE 142320Z 1500/1524 16009KT P6SM SCT040 PROB30 1511/1515 -TSRA
      BKN035CB
     FM151600 35011KT 3SM -DZ BR OVC011
     FM152200 02010KT 6SM BR BKN024=

USA.gov is the U.S. government's official web portal to all federal, state and local government web resources and services.